Time;durP1;ratioP1;P1;durP2;ratioP2;P2;SDS_P1;SDS_P2;PMS_P1;PMS_P2;Temp;Humidity;BMP_temperature;BMP_pressure;BME280_temperature;BME280_humidity;BME280_pressure;Samples;Min_cycle;Max_cycle;Signal;HPM_P1;HPM_P2
2022/07/09 00:00:36;;;;;;;10.45;4.22;;;18.90;99.90;;;;;;5074476;28;20028;-69
2022/07/09 00:03:03;;;;;;;6.80;3.58;;;18.90;99.90;;;;;;5076536;28;20059;-76
2022/07/09 00:05:28;;;;;;;5.78;3.53;;;18.80;99.90;;;;;;5073839;28;20081;-72
2022/07/09 00:07:54;;;;;;;8.35;4.68;;;18.80;99.90;;;;;;5074808;28;20119;-75
2022/07/09 00:10:20;;;;;;;6.82;3.95;;;18.70;99.90;;;;;;5072635;28;20128;-65
2022/07/09 00:12:46;;;;;;;7.53;3.45;;;18.70;99.90;;;;;;5078311;28;20032;-76
2022/07/09 00:15:12;;;;;;;5.78;3.80;;;18.70;99.90;;;;;;5066717;28;20548;-75
2022/07/09 00:17:38;;;;;;;9.07;4.18;;;18.60;99.90;;;;;;5073513;28;20046;-73
2022/07/09 00:20:05;;;;;;;8.52;4.13;;;18.60;99.90;;;;;;5073732;28;20021;-73
2022/07/09 00:22:32;;;;;;;7.40;4.05;;;18.60;99.90;;;;;;5073044;28;20538;-72
2022/07/09 00:24:59;;;;;;;5.57;3.67;;;18.60;99.90;;;;;;5078494;28;20023;-68
2022/07/09 00:27:24;;;;;;;5.78;3.55;;;18.60;99.90;;;;;;5073301;28;20033;-73
2022/07/09 00:29:50;;;;;;;12.90;3.75;;;18.60;99.90;;;;;;5074163;28;21261;-71
2022/07/09 00:32:16;;;;;;;6.13;3.83;;;18.60;99.90;;;;;;5073828;28;20082;-75
2022/07/09 00:34:42;;;;;;;6.43;3.38;;;18.60;99.90;;;;;;5073980;28;20467;-75
2022/07/09 00:37:09;;;;;;;6.65;3.92;;;18.60;99.90;;;;;;5073451;28;20041;-69
2022/07/09 00:39:35;;;;;;;8.07;3.72;;;18.60;99.90;;;;;;5073667;28;20026;-75
2022/07/09 00:42:08;;;;;;;6.60;3.25;;;18.60;99.90;;;;;;5074077;28;20398;-74
2022/07/09 00:44:35;;;;;;;5.15;3.05;;;18.70;99.90;;;;;;5073799;28;20036;-75
2022/07/09 00:47:02;;;;;;;4.72;3.10;;;18.80;99.90;;;;;;5073075;28;20022;-74
2022/07/09 00:49:34;;;;;;;4.43;2.60;;;18.90;99.90;;;;;;5073314;28;20032;-74
2022/07/09 00:51:59;;;;;;;4.13;2.65;;;19.00;99.90;;;;;;5072815;28;20036;-73
2022/07/09 00:54:26;;;;;;;8.80;3.60;;;19.00;99.90;;;;;;5083202;28;20028;-73
2022/07/09 00:56:55;;;;;;;7.57;3.55;;;18.90;99.90;;;;;;5073222;28;20040;-62
2022/07/09 00:59:22;;;;;;;8.48;3.58;;;18.90;99.90;;;;;;5077191;28;20024;-72
2022/07/09 01:01:51;;;;;;;6.65;3.03;;;18.90;99.90;;;;;;5073465;28;20025;-72
2022/07/09 01:04:17;;;;;;;6.40;2.70;;;19.00;99.90;;;;;;5073320;28;20502;-75
2022/07/09 01:06:44;;;;;;;3.20;2.45;;;19.00;99.90;;;;;;5073109;28;20028;-72
2022/07/09 01:09:10;;;;;;;4.55;2.30;;;19.10;99.90;;;;;;5073317;28;20352;-75
2022/07/09 01:11:36;;;;;;;5.75;2.35;;;19.20;99.90;;;;;;5074566;28;20041;-72
2022/07/09 01:14:02;;;;;;;2.47;1.63;;;19.20;99.90;;;;;;5073395;28;20032;-75
2022/07/09 01:16:37;;;;;;;4.43;2.15;;;19.30;99.90;;;;;;5073083;28;20478;-69
2022/07/09 01:19:04;;;;;;;4.88;2.50;;;19.40;99.90;;;;;;5073146;28;20471;-73
2022/07/09 01:21:30;;;;;;;5.22;2.17;;;19.40;99.90;;;;;;5072218;28;20033;-76
2022/07/09 01:23:56;;;;;;;8.70;2.15;;;19.40;99.90;;;;;;5072060;28;20550;-72
2022/07/09 01:26:23;;;;;;;3.55;2.05;;;19.40;99.90;;;;;;5072640;28;20099;-72
2022/07/09 01:28:49;;;;;;;2.72;1.70;;;19.50;99.90;;;;;;5073026;28;20082;-72
2022/07/09 01:31:15;;;;;;;5.18;2.05;;;19.50;99.90;;;;;;5073097;28;20017;-75
2022/07/09 01:33:41;;;;;;;4.32;1.92;;;19.50;99.90;;;;;;5072930;28;20417;-75
2022/07/09 01:36:08;;;;;;;6.93;2.58;;;19.50;99.90;;;;;;5072987;28;20024;-73
2022/07/09 01:38:34;;;;;;;2.17;1.92;;;19.50;99.90;;;;;;5072817;28;20036;-74
2022/07/09 01:41:00;;;;;;;3.75;2.45;;;19.50;99.90;;;;;;5072309;28;20352;-72
2022/07/09 01:43:26;;;;;;;5.68;2.58;;;19.40;99.90;;;;;;5072548;28;20032;-73
2022/07/09 01:45:52;;;;;;;4.88;2.15;;;19.40;99.90;;;;;;5072671;28;20020;-74
2022/07/09 01:48:18;;;;;;;4.63;2.72;;;19.40;99.90;;;;;;5072587;28;20531;-77
2022/07/09 01:50:44;;;;;;;3.08;2.28;;;19.30;99.90;;;;;;5072439;28;20100;-75
2022/07/09 01:53:10;;;;;;;3.65;2.15;;;19.30;99.90;;;;;;5071898;28;20031;-72
2022/07/09 01:55:36;;;;;;;11.13;2.20;;;19.20;99.90;;;;;;5072216;28;20078;-76
2022/07/09 01:58:02;;;;;;;3.50;2.00;;;19.10;99.90;;;;;;5072142;28;20028;-76
2022/07/09 02:00:29;;;;;;;3.28;2.03;;;19.00;99.90;;;;;;5080331;28;20077;-72
2022/07/09 02:02:55;;;;;;;4.20;2.30;;;18.70;99.90;;;;;;5072879;28;20103;-75
2022/07/09 02:05:21;;;;;;;5.15;2.83;;;18.50;99.90;;;;;;5072197;28;20104;-73
2022/07/09 02:07:47;;;;;;;5.00;2.65;;;18.40;99.90;;;;;;5072487;28;20095;-75
2022/07/09 02:10:13;;;;;;;5.57;2.72;;;18.30;99.90;;;;;;5071869;28;20425;-68
2022/07/09 02:12:40;;;;;;;4.82;2.67;;;18.20;99.90;;;;;;5072104;28;20028;-66
2022/07/09 02:15:07;;;;;;;3.83;2.63;;;18.00;99.90;;;;;;5072462;28;20474;-74
2022/07/09 02:17:32;;;;;;;4.63;2.90;;;18.00;99.90;;;;;;5074881;28;20040;-75
2022/07/09 02:19:59;;;;;;;6.85;3.38;;;18.00;99.90;;;;;;5072006;28;20484;-74
2022/07/09 02:22:24;;;;;;;6.28;3.17;;;17.90;99.90;;;;;;5072063;28;20032;-75
2022/07/09 02:24:50;;;;;;;6.95;3.53;;;17.80;99.90;;;;;;5072213;28;20020;-70
2022/07/09 02:27:16;;;;;;;10.27;4.70;;;17.80;99.90;;;;;;5071643;28;20032;-75
2022/07/09 02:29:42;;;;;;;11.88;5.25;;;17.80;99.90;;;;;;5072376;28;20036;-75
2022/07/09 02:32:10;;;;;;;11.07;5.40;;;17.80;99.90;;;;;;5071787;28;20028;-75
2022/07/09 02:34:37;;;;;;;6.78;4.13;;;17.80;99.90;;;;;;5071848;28;20437;-76
2022/07/09 02:37:04;;;;;;;5.53;4.10;;;17.70;99.90;;;;;;5071740;28;20036;-75
2022/07/09 02:39:30;;;;;;;11.40;4.53;;;17.70;99.90;;;;;;5072133;28;20419;-76
2022/07/09 02:41:55;;;;;;;12.25;4.07;;;17.70;99.90;;;;;;5071392;28;20101;-76
2022/07/09 02:44:21;;;;;;;6.50;4.05;;;17.70;99.90;;;;;;5071607;28;20463;-73
2022/07/09 02:46:47;;;;;;;8.02;3.95;;;17.70;99.90;;;;;;5072074;28;20086;-72
2022/07/09 02:49:13;;;;;;;5.30;3.47;;;17.70;99.90;;;;;;5082773;28;20033;-75
2022/07/09 02:51:39;;;;;;;7.68;3.05;;;17.70;99.90;;;;;;5071851;28;20020;-75
2022/07/09 02:54:05;;;;;;;9.85;3.78;;;17.70;99.90;;;;;;5071647;28;20070;-75
2022/07/09 02:56:32;;;;;;;5.20;3.25;;;17.70;99.90;;;;;;5071605;28;20036;-74
2022/07/09 02:58:57;;;;;;;4.63;2.95;;;17.60;99.90;;;;;;5070964;28;20074;-75
2022/07/09 03:01:23;;;;;;;4.80;3.10;;;17.70;99.90;;;;;;5072004;28;20041;-71
2022/07/09 03:03:49;;;;;;;7.97;3.47;;;17.70;99.90;;;;;;5071171;28;20455;-74
2022/07/09 03:06:15;;;;;;;5.22;2.75;;;17.80;99.90;;;;;;5071098;28;20032;-75
2022/07/09 03:08:41;;;;;;;8.15;3.10;;;17.80;99.90;;;;;;5070931;28;20020;-74
2022/07/09 03:11:07;;;;;;;4.53;3.05;;;17.90;99.90;;;;;;5071004;28;20127;-71
2022/07/09 03:13:33;;;;;;;6.22;3.28;;;17.80;99.90;;;;;;5071245;28;20085;-76
2022/07/09 03:15:59;;;;;;;7.75;4.22;;;17.80;99.90;;;;;;5071027;28;20033;-75
2022/07/09 03:18:25;;;;;;;8.38;4.03;;;17.80;99.90;;;;;;5071218;28;20059;-75
2022/07/09 03:20:51;;;;;;;6.68;4.28;;;17.70;99.90;;;;;;5071537;28;20024;-76
2022/07/09 03:23:17;;;;;;;6.60;3.67;;;17.60;99.90;;;;;;5071441;28;20066;-77
2022/07/09 03:25:43;;;;;;;9.20;3.42;;;17.60;99.90;;;;;;5070871;28;20029;-75
2022/07/09 03:28:09;;;;;;;4.15;2.80;;;17.60;99.90;;;;;;5071638;28;20020;-75
2022/07/09 03:30:35;;;;;;;8.45;3.50;;;17.60;99.90;;;;;;5071626;28;20029;-74
2022/07/09 03:33:01;;;;;;;9.25;2.97;;;17.20;99.90;;;;;;5070893;28;20031;-74
2022/07/09 03:35:27;;;;;;;7.55;3.80;;;17.20;99.90;;;;;;5071340;28;20456;-73
2022/07/09 03:37:53;;;;;;;8.15;3.78;;;17.10;99.90;;;;;;5070880;28;20090;-74
2022/07/09 03:40:19;;;;;;;6.63;4.13;;;17.10;99.90;;;;;;5071137;28;20082;-74
2022/07/09 03:42:44;;;;;;;7.93;4.38;;;17.00;99.90;;;;;;5070386;28;20131;-75
2022/07/09 03:45:10;;;;;;;11.05;3.83;;;17.00;99.90;;;;;;5071442;28;20046;-73
2022/07/09 03:47:36;;;;;;;10.23;4.70;;;16.90;99.90;;;;;;5074831;28;20032;-74
2022/07/09 03:50:03;;;;;;;7.65;3.83;;;16.80;99.90;;;;;;5074905;28;20022;-76
2022/07/09 03:52:28;;;;;;;5.80;3.85;;;16.80;99.90;;;;;;5074413;28;20028;-74
2022/07/09 03:54:54;;;;;;;8.18;4.80;;;16.80;99.90;;;;;;5075024;28;20025;-72
2022/07/09 03:57:20;;;;;;;8.77;5.18;;;16.80;99.90;;;;;;5074566;28;20028;-74
2022/07/09 03:59:46;;;;;;;8.35;5.10;;;16.80;99.90;;;;;;5074402;28;20238;-72
2022/07/09 04:02:12;;;;;;;7.85;4.38;;;16.70;99.90;;;;;;5074125;28;20103;-75
2022/07/09 04:04:37;;;;;;;10.18;5.28;;;16.70;99.90;;;;;;5073101;28;20559;-73
2022/07/09 04:07:04;;;;;;;10.90;5.00;;;16.60;99.90;;;;;;5074517;28;20027;-73
2022/07/09 04:09:30;;;;;;;10.88;5.43;;;16.60;99.90;;;;;;5074840;28;20025;-77
2022/07/09 04:11:56;;;;;;;10.80;5.60;;;16.60;99.90;;;;;;5074002;28;20518;-77
2022/07/09 04:14:22;;;;;;;13.23;5.88;;;16.60;99.90;;;;;;5073625;28;20029;-75
2022/07/09 04:16:48;;;;;;;9.77;5.32;;;16.60;99.90;;;;;;5074435;28;20025;-75
2022/07/09 04:19:14;;;;;;;11.75;5.35;;;16.60;99.90;;;;;;5074032;28;20492;-75
2022/07/09 04:21:40;;;;;;;8.68;5.38;;;16.90;99.90;;;;;;5075197;28;20047;-75
2022/07/09 04:24:05;;;;;;;11.65;5.30;;;16.70;99.90;;;;;;5073778;28;20392;-74
2022/07/09 04:26:31;;;;;;;9.77;5.30;;;16.70;99.90;;;;;;5073878;28;20032;-73
2022/07/09 04:28:57;;;;;;;9.88;5.30;;;16.70;99.90;;;;;;5073855;28;20025;-73
2022/07/09 04:31:23;;;;;;;11.90;5.57;;;16.70;99.90;;;;;;5073778;28;20059;-76
2022/07/09 04:33:49;;;;;;;11.07;5.50;;;16.70;99.90;;;;;;5073940;28;20032;-75
2022/07/09 04:36:15;;;;;;;10.80;5.03;;;16.70;99.90;;;;;;5073917;28;20035;-75
2022/07/09 04:38:41;;;;;;;9.52;5.32;;;16.80;99.90;;;;;;5073775;28;20123;-75
2022/07/09 04:41:07;;;;;;;9.80;5.25;;;16.80;99.90;;;;;;5073149;28;20115;-74
2022/07/09 04:43:33;;;;;;;18.67;5.07;;;16.80;99.90;;;;;;5073868;28;20081;-75
2022/07/09 04:45:59;;;;;;;8.93;5.03;;;16.90;99.90;;;;;;5072919;28;20079;-71
2022/07/09 04:48:25;;;;;;;9.65;4.95;;;16.80;99.90;;;;;;5073484;28;20115;-69
2022/07/09 04:50:51;;;;;;;11.32;5.40;;;16.70;99.90;;;;;;5073405;28;20024;-75
2022/07/09 04:53:17;;;;;;;11.48;5.95;;;16.60;99.90;;;;;;5073222;28;20089;-64
2022/07/09 04:55:43;;;;;;;12.68;6.03;;;16.60;99.90;;;;;;5072822;28;20375;-71
2022/07/09 04:58:09;;;;;;;9.98;5.47;;;16.70;99.90;;;;;;5072157;28;20039;-75
2022/07/09 05:00:35;;;;;;;10.18;5.57;;;16.60;99.90;;;;;;5074601;28;20014;-74
2022/07/09 05:03:02;;;;;;;11.02;5.53;;;16.70;99.90;;;;;;5051875;28;20025;-75
2022/07/09 05:05:27;;;;;;;11.40;6.05;;;16.60;99.90;;;;;;5052067;28;20021;-70
2022/07/09 05:07:53;;;;;;;10.00;5.50;;;16.60;99.90;;;;;;5057301;28;20031;-75
2022/07/09 05:10:19;;;;;;;10.25;5.35;;;16.60;99.90;;;;;;5072200;28;20041;-73
2022/07/09 05:12:46;;;;;;;9.68;5.60;;;16.60;99.90;;;;;;5064592;28;20068;-74
2022/07/09 05:15:13;;;;;;;10.50;5.82;;;16.60;99.90;;;;;;5065710;28;20194;-74
2022/07/09 05:17:39;;;;;;;8.75;5.47;;;16.60;99.90;;;;;;5070901;28;20383;-76
2022/07/09 05:20:08;;;;;;;9.80;5.22;;;16.60;99.90;;;;;;5073311;28;20025;-72
2022/07/09 05:22:35;;;;;;;6.90;4.50;;;16.60;99.90;;;;;;5073149;28;20391;-73
2022/07/09 05:25:03;;;;;;;8.95;4.80;;;16.70;99.90;;;;;;5073066;28;20082;-76
2022/07/09 05:27:28;;;;;;;11.27;5.38;;;16.70;99.90;;;;;;5072543;28;20021;-74
2022/07/09 05:29:54;;;;;;;9.32;5.05;;;16.80;99.90;;;;;;5072203;28;20546;-76
2022/07/09 05:32:20;;;;;;;10.00;5.80;;;16.90;99.90;;;;;;5072735;28;20070;-75
2022/07/09 05:34:46;;;;;;;10.15;5.00;;;17.00;99.90;;;;;;5072261;28;20017;-75
2022/07/09 05:37:12;;;;;;;8.90;4.90;;;17.00;99.90;;;;;;5072704;28;20040;-76
2022/07/09 05:39:38;;;;;;;11.52;4.95;;;17.20;99.90;;;;;;5072701;28;20423;-75
2022/07/09 05:42:04;;;;;;;11.80;4.53;;;17.20;99.90;;;;;;5072739;28;20024;-73
2022/07/09 05:44:31;;;;;;;8.43;4.85;;;17.40;99.90;;;;;;5073592;28;20021;-75
2022/07/09 05:46:57;;;;;;;8.55;5.05;;;17.40;99.90;;;;;;5072508;28;20078;-74
2022/07/09 05:49:22;;;;;;;8.00;4.38;;;17.80;99.90;;;;;;5071912;28;20020;-74
2022/07/09 05:51:48;;;;;;;9.55;4.78;;;18.00;99.90;;;;;;5068942;28;20028;-74
2022/07/09 05:54:14;;;;;;;7.70;4.32;;;17.90;99.90;;;;;;5071182;28;20028;-73
2022/07/09 05:56:41;;;;;;;9.65;4.28;;;18.00;99.90;;;;;;5071871;28;20032;-75
2022/07/09 05:59:07;;;;;;;9.32;4.55;;;17.90;99.90;;;;;;5072347;28;20020;-72
2022/07/09 06:01:38;;;;;;;7.38;4.53;;;17.80;99.90;;;;;;5071399;28;20020;-75
2022/07/09 06:04:05;;;;;;;9.80;4.38;;;17.80;99.90;;;;;;5071877;28;20046;-72
2022/07/09 06:06:30;;;;;;;7.82;4.40;;;17.70;99.90;;;;;;5071917;28;20017;-73
2022/07/09 06:08:56;;;;;;;7.85;3.90;;;17.60;99.90;;;;;;5071253;28;20081;-74
2022/07/09 06:11:22;;;;;;;7.70;4.00;;;17.60;99.90;;;;;;5071364;28;20053;-75
2022/07/09 06:13:48;;;;;;;5.43;3.25;;;17.60;99.90;;;;;;5071750;28;20085;-71
2022/07/09 06:16:14;;;;;;;12.82;4.35;;;17.50;99.90;;;;;;5071973;28;20089;-74
2022/07/09 06:18:40;;;;;;;9.80;4.78;;;17.40;99.90;;;;;;5072091;28;20024;-74
2022/07/09 06:21:05;;;;;;;5.93;3.22;;;17.50;99.90;;;;;;5072277;28;20451;-74
2022/07/09 06:23:31;;;;;;;17.15;4.72;;;17.50;99.90;;;;;;5067094;28;20387;-73
2022/07/09 06:25:57;;;;;;;12.13;4.65;;;17.40;99.90;;;;;;5067934;28;20051;-73
2022/07/09 06:28:23;;;;;;;9.77;4.72;;;17.40;99.90;;;;;;5068945;28;20486;-72
2022/07/09 06:30:49;;;;;;;8.02;4.00;;;17.40;99.90;;;;;;5071211;28;20482;-74
2022/07/09 06:33:15;;;;;;;7.15;4.00;;;17.40;99.90;;;;;;5071178;28;20122;-73
2022/07/09 06:35:40;;;;;;;8.20;4.07;;;17.40;99.90;;;;;;5070628;28;20106;-70
2022/07/09 06:38:06;;;;;;;8.70;4.32;;;17.50;99.90;;;;;;5071042;28;20426;-71
2022/07/09 06:40:34;;;;;;;11.13;4.68;;;17.70;99.90;;;;;;5070716;28;20360;-73
2022/07/09 06:43:00;;;;;;;10.90;5.60;;;17.60;99.90;;;;;;5071183;28;20112;-73
2022/07/09 06:45:33;;;;;;;11.55;6.03;;;17.60;99.90;;;;;;5056460;28;20505;-74
2022/07/09 06:47:59;;;;;;;11.85;5.95;;;17.60;99.90;;;;;;5070928;28;20049;-74
2022/07/09 06:50:25;;;;;;;11.13;4.93;;;17.70;99.90;;;;;;5070451;28;20096;-71
2022/07/09 06:52:51;;;;;;;6.13;3.67;;;17.70;99.90;;;;;;5070529;28;20024;-73
2022/07/09 06:55:17;;;;;;;9.30;4.18;;;17.70;99.90;;;;;;5070335;28;20047;-74
2022/07/09 06:57:42;;;;;;;8.52;3.42;;;17.70;99.90;;;;;;5056590;28;20028;-68
2022/07/09 07:00:09;;;;;;;8.15;4.13;;;17.80;99.90;;;;;;5071153;28;20028;-73
2022/07/09 07:02:35;;;;;;;8.88;3.80;;;17.80;99.90;;;;;;5069538;28;20036;-73
2022/07/09 07:05:00;;;;;;;6.07;4.03;;;18.00;99.90;;;;;;5069360;28;20020;-73
2022/07/09 07:07:26;;;;;;;10.25;3.58;;;18.00;99.90;;;;;;5070167;28;20078;-73
2022/07/09 07:09:52;;;;;;;6.65;3.55;;;18.10;99.90;;;;;;5069230;28;20055;-72
2022/07/09 07:12:18;;;;;;;6.93;3.17;;;18.20;99.90;;;;;;5061849;28;20378;-72
2022/07/09 07:14:44;;;;;;;7.30;3.05;;;18.20;99.90;;;;;;5053897;28;20031;-74
2022/07/09 07:17:10;;;;;;;9.20;3.15;;;18.20;99.90;;;;;;5070047;28;20710;-74
2022/07/09 07:19:36;;;;;;;10.02;3.35;;;18.20;99.90;;;;;;5070464;28;20017;-73
2022/07/09 07:22:02;;;;;;;8.10;3.65;;;18.20;99.90;;;;;;5073845;28;20087;-74
2022/07/09 07:24:30;;;;;;;6.15;3.20;;;18.40;99.90;;;;;;5074147;28;20021;-68
2022/07/09 07:26:56;;;;;;;8.30;3.75;;;18.40;99.90;;;;;;5074463;28;20025;-68
2022/07/09 07:29:23;;;;;;;6.03;2.88;;;18.50;99.90;;;;;;5074101;28;20019;-72
2022/07/09 07:31:49;;;;;;;11.27;4.03;;;18.60;99.90;;;;;;5073296;28;20017;-72
2022/07/09 07:34:15;;;;;;;8.80;3.78;;;18.70;99.90;;;;;;5074231;28;20036;-71
2022/07/09 07:36:41;;;;;;;6.78;3.40;;;18.70;99.90;;;;;;5074788;28;20036;-70
2022/07/09 07:39:07;;;;;;;7.43;3.92;;;18.70;99.90;;;;;;5073942;28;20025;-72
2022/07/09 07:41:33;;;;;;;6.18;3.28;;;18.70;99.90;;;;;;5074496;28;20028;-72
2022/07/09 07:43:59;;;;;;;6.95;3.22;;;18.80;99.90;;;;;;5074363;28;20036;-72
2022/07/09 07:46:25;;;;;;;4.55;2.75;;;18.70;99.90;;;;;;5074397;28;20443;-70
2022/07/09 07:48:50;;;;;;;6.60;3.63;;;18.80;99.90;;;;;;5073457;28;20070;-71
2022/07/09 07:51:16;;;;;;;7.25;3.88;;;18.90;99.90;;;;;;5073856;28;20108;-72
2022/07/09 07:53:42;;;;;;;8.15;2.90;;;19.00;99.90;;;;;;5073993;28;20024;-73
2022/07/09 07:56:08;;;;;;;6.60;3.90;;;19.10;99.90;;;;;;5073833;28;20028;-73
2022/07/09 07:58:35;;;;;;;5.80;3.10;;;19.10;99.90;;;;;;5073656;28;20035;-73
2022/07/09 08:01:02;;;;;;;5.63;3.75;;;19.20;99.90;;;;;;5074395;28;20107;-73
2022/07/09 08:03:28;;;;;;;9.55;3.40;;;19.20;99.90;;;;;;5074374;28;20021;-72
2022/07/09 08:05:53;;;;;;;7.43;3.08;;;19.40;99.90;;;;;;5074205;28;20383;-73
2022/07/09 08:08:20;;;;;;;8.10;3.72;;;19.50;99.90;;;;;;5073807;28;20020;-70
2022/07/09 08:10:48;;;;;;;5.95;2.90;;;19.60;99.90;;;;;;5073566;28;20037;-70
2022/07/09 08:13:15;;;;;;;9.32;3.33;;;19.70;99.90;;;;;;5074053;28;20131;-72
2022/07/09 08:15:41;;;;;;;4.45;2.92;;;19.60;99.90;;;;;;5073688;28;20024;-72
2022/07/09 08:18:08;;;;;;;4.07;2.80;;;19.70;99.90;;;;;;5073782;28;20120;-71
2022/07/09 08:20:37;;;;;;;5.22;2.95;;;19.50;99.90;;;;;;5073770;28;20032;-71
2022/07/09 08:23:03;;;;;;;5.65;3.00;;;19.70;99.90;;;;;;5073836;28;20071;-68
2022/07/09 08:25:29;;;;;;;3.63;2.95;;;19.80;99.90;;;;;;5074319;28;20024;-71
2022/07/09 08:27:54;;;;;;;6.47;3.25;;;19.80;99.90;;;;;;5071741;28;20525;-72
2022/07/09 08:30:20;;;;;;;9.68;3.88;;;20.10;99.90;;;;;;5073407;28;20396;-72
2022/07/09 08:32:46;;;;;;;12.88;3.70;;;20.20;99.90;;;;;;5073157;28;20465;-72
2022/07/09 08:35:12;;;;;;;5.03;3.05;;;20.20;99.90;;;;;;5066689;28;20037;-72
2022/07/09 08:37:38;;;;;;;5.53;3.20;;;20.30;99.90;;;;;;5053827;28;20463;-71
2022/07/09 08:40:06;;;;;;;6.40;2.67;;;20.20;99.90;;;;;;5053140;28;20382;-70
2022/07/09 08:42:32;;;;;;;6.78;3.00;;;20.40;99.90;;;;;;5053663;28;20033;-71
2022/07/09 08:44:58;;;;;;;4.78;2.88;;;20.40;99.90;;;;;;5072387;28;20020;-71
2022/07/09 08:47:25;;;;;;;6.50;2.80;;;20.70;99.90;;;;;;5073502;28;20032;-71
2022/07/09 08:49:56;;;;;;;7.10;2.85;;;20.80;99.90;;;;;;5073711;28;20386;-71
2022/07/09 08:52:26;;;;;;;6.75;3.00;;;20.80;99.90;;;;;;5073674;28;20029;-72
2022/07/09 08:54:55;;;;;;;5.10;2.55;;;20.60;99.90;;;;;;5073348;28;20025;-71
2022/07/09 08:57:21;;;;;;;6.88;3.40;;;20.70;99.90;;;;;;5059389;28;20037;-72
2022/07/09 08:59:46;;;;;;;5.43;3.08;;;20.70;99.90;;;;;;5073085;28;20032;-71
2022/07/09 09:02:13;;;;;;;7.55;3.72;;;20.70;99.90;;;;;;5072989;28;20028;-70
2022/07/09 09:04:40;;;;;;;7.00;3.20;;;20.80;99.90;;;;;;5073236;28;20424;-71
2022/07/09 09:07:32;;;;;;;4.97;3.15;;;20.90;99.90;;;;;;5072853;28;20048;-71
2022/07/09 09:09:58;;;;;;;5.95;2.85;;;;;;;;;;5070858;28;20033;-72
2022/07/09 09:12:28;;;;;;;4.82;3.08;;;21.20;99.90;;;;;;5072511;28;20491;-74
2022/07/09 09:14:54;;;;;;;8.25;3.88;;;21.20;99.90;;;;;;5072840;28;20036;-73
2022/07/09 09:17:20;;;;;;;5.43;2.92;;;21.10;99.90;;;;;;5072842;28;20033;-72
2022/07/09 09:19:46;;;;;;;4.88;2.95;;;21.10;99.90;;;;;;5072044;28;20039;-72
2022/07/09 09:22:15;;;;;;;5.57;2.40;;;21.20;99.90;;;;;;5072549;28;20036;-69
2022/07/09 09:24:42;;;;;;;5.60;3.05;;;21.30;99.90;;;;;;5072111;28;20032;-70
2022/07/09 09:27:08;;;;;;;7.70;3.05;;;21.20;99.90;;;;;;5071887;28;20090;-72
2022/07/09 09:29:39;;;;;;;7.05;2.83;;;21.40;99.90;;;;;;5070159;28;20109;-71
2022/07/09 09:32:12;;;;;;;5.30;2.40;;;21.40;99.90;;;;;;5071909;28;20482;-71
2022/07/09 09:34:41;;;;;;;7.10;2.60;;;21.50;99.90;;;;;;5072282;28;20025;-71
2022/07/09 09:37:08;;;;;;;3.60;2.72;;;21.60;99.90;;;;;;5065063;28;20032;-71
2022/07/09 09:39:35;;;;;;;7.88;2.95;;;21.60;99.90;;;;;;5051942;28;20021;-72
2022/07/09 09:42:04;;;;;;;7.53;3.45;;;21.60;99.90;;;;;;5070139;28;20055;-72
2022/07/09 09:44:40;;;;;;;8.65;2.45;;;22.10;99.90;;;;;;5071587;28;20052;-71
2022/07/09 09:47:07;;;;;;;5.97;2.78;;;22.40;99.90;;;;;;5072439;28;20037;-71
2022/07/09 09:49:34;;;;;;;8.45;3.30;;;22.70;99.90;;;;;;5071930;28;20020;-72
2022/07/09 09:52:08;;;;;;;5.68;3.17;;;23.30;99.90;;;;;;5072404;28;20048;-71
2022/07/09 09:54:35;;;;;;;7.40;2.60;;;23.70;99.90;;;;;;5071824;28;20028;-70
2022/07/09 09:57:06;;;;;;;5.68;2.70;;;24.10;99.90;;;;;;5071682;28;20032;-73
2022/07/09 09:59:36;;;;;;;6.65;3.00;;;24.10;99.60;;;;;;5063126;28;20032;-71
2022/07/09 10:02:02;;;;;;;4.40;3.03;;;23.60;99.90;;;;;;5071922;28;20459;-72
2022/07/09 10:04:29;;;;;;;5.10;2.75;;;24.20;99.90;;;;;;5072010;28;20017;-72
2022/07/09 10:06:54;;;;;;;6.00;2.97;;;24.20;99.90;;;;;;5071665;28;20024;-72
2022/07/09 10:09:21;;;;;;;5.10;3.20;;;24.30;99.90;;;;;;5072001;28;20433;-71
2022/07/09 10:11:48;;;;;;;5.40;2.47;;;24.10;97.70;;;;;;5071395;28;20056;-71
2022/07/09 10:14:23;;;;;;;6.70;2.58;;;23.50;99.90;;;;;;5071320;28;20032;-70
2022/07/09 10:16:50;;;;;;;4.13;2.92;;;23.60;99.90;;;;;;5071355;28;20083;-72
2022/07/09 10:19:28;;;;;;;5.43;2.78;;;23.70;99.10;;;;;;5071680;28;20090;-65
2022/07/09 10:21:55;;;;;;;3.83;2.72;;;23.50;99.90;;;;;;5071521;28;20367;-72
2022/07/09 10:24:29;;;;;;;5.75;2.90;;;23.60;99.00;;;;;;5071216;28;20025;-72
2022/07/09 10:27:09;;;;;;;5.80;2.50;;;23.60;99.90;;;;;;5070901;28;20051;-72
2022/07/09 10:29:49;;;;;;;5.53;2.60;;;23.60;99.90;;;;;;5069921;28;20028;-73
2022/07/09 10:32:29;;;;;;;4.28;2.40;;;23.80;99.90;;;;;;5063501;28;20451;-73
2022/07/09 10:35:00;;;;;;;5.50;2.50;;;23.60;99.40;;;;;;5071540;28;20016;-69
2022/07/09 10:37:43;;;;;;;3.65;2.75;;;23.60;99.90;;;;;;5071425;28;20036;-72
2022/07/09 10:40:09;;;;;;;5.80;2.92;;;23.20;98.60;;;;;;5071059;28;20028;-73
2022/07/09 10:42:35;;;;;;;2.90;2.33;;;23.40;99.90;;;;;;5071285;28;20040;-73
2022/07/09 10:45:01;;;;;;;7.38;2.67;;;23.80;98.90;;;;;;5070889;28;20027;-72
2022/07/09 10:47:38;;;;;;;4.82;2.60;;;23.80;98.00;;;;;;5072161;28;20504;-73
2022/07/09 10:50:05;;;;;;;5.32;2.83;;;24.00;99.60;;;;;;5071918;28;20024;-73
2022/07/09 10:52:31;;;;;;;3.35;2.55;;;24.10;99.90;;;;;;5071419;28;20020;-72
2022/07/09 10:54:57;;;;;;;5.38;2.75;;;23.80;99.40;;;;;;5073336;28;20410;-73
2022/07/09 10:57:23;;;;;;;4.82;2.72;;;24.20;99.90;;;;;;5074821;28;20025;-73
2022/07/09 10:59:51;;;;;;;7.13;2.97;;;24.80;99.90;;;;;;5074547;28;20028;-70
2022/07/09 11:02:21;;;;;;;6.80;2.35;;;24.70;99.90;;;;;;5074902;28;20060;-73
2022/07/09 11:04:50;;;;;;;5.80;2.67;;;;;;;;;;5075306;28;20523;-73
2022/07/09 11:07:29;;;;;;;3.95;2.10;;;24.50;99.90;;;;;;5074729;28;20058;-67
2022/07/09 11:09:55;;;;;;;7.10;2.72;;;24.90;97.20;;;;;;5074757;28;20771;-73
2022/07/09 11:12:21;;;;;;;4.15;2.20;;;24.70;95.20;;;;;;5074913;28;20056;-69
2022/07/09 11:14:49;;;;;;;4.95;2.40;;;24.50;92.10;;;;;;5075281;28;20100;-73
2022/07/09 11:17:20;;;;;;;5.00;2.20;;;24.50;93.50;;;;;;5075248;28;20036;-72
2022/07/09 11:19:47;;;;;;;3.58;2.63;;;24.60;97.30;;;;;;5075339;28;20104;-73
2022/07/09 11:22:13;;;;;;;3.15;1.80;;;24.70;94.10;;;;;;5075228;28;20386;-70
2022/07/09 11:24:38;;;;;;;6.38;2.17;;;24.80;91.40;;;;;;5074987;28;20550;-73
2022/07/09 11:27:06;;;;;;;3.38;2.40;;;24.50;91.50;;;;;;5074737;28;20100;-73
2022/07/09 11:29:33;;;;;;;4.82;2.72;;;24.00;94.00;;;;;;5074293;28;20021;-75
2022/07/09 11:31:58;;;;;;;3.22;2.45;;;23.80;94.70;;;;;;5074147;28;20024;-72
2022/07/09 11:34:24;;;;;;;4.70;2.63;;;23.60;97.60;;;;;;5074631;28;20108;-64
2022/07/09 11:36:52;;;;;;;3.63;2.47;;;24.00;97.10;;;;;;5072807;28;20405;-72
2022/07/09 11:39:24;;;;;;;3.58;2.10;;;24.10;93.10;;;;;;5073987;28;20031;-69
2022/07/09 11:41:50;;;;;;;5.88;2.50;;;24.10;93.00;;;;;;5072641;28;20368;-73
2022/07/09 11:44:35;;;;;;;2.88;2.13;;;24.50;95.60;;;;;;5074307;28;20112;-64
2022/07/09 11:47:09;;;;;;;4.50;2.10;;;24.60;90.60;;;;;;5064415;28;20100;-69
2022/07/09 11:49:43;;;;;;;3.80;2.20;;;24.80;97.10;;;;;;5054069;28;20021;-76
2022/07/09 11:52:18;;;;;;;5.65;2.33;;;25.00;88.80;;;;;;5054576;28;20059;-75
2022/07/09 11:55:06;;;;;;;3.67;2.38;;;25.00;90.10;;;;;;5054348;28;20029;-75
2022/07/09 11:57:34;;;;;;;4.55;2.33;;;25.00;87.50;;;;;;5055552;28;20552;-74
2022/07/09 12:00:02;;;;;;;7.95;2.83;;;25.00;87.80;;;;;;5056267;28;20021;-70
2022/07/09 12:02:38;;;;;;;5.47;2.38;;;25.20;91.90;;;;;;5067838;28;20116;-75
2022/07/09 12:05:06;;;;;;;3.28;2.40;;;25.00;91.80;;;;;;5073563;28;20484;-74
2022/07/09 12:07:34;;;;;;;3.80;2.17;;;25.00;92.60;;;;;;5072818;28;20019;-71
2022/07/09 12:10:09;;;;;;;4.88;2.40;;;25.30;94.00;;;;;;5073522;28;20024;-71
2022/07/09 12:12:36;;;;;;;2.15;1.90;;;25.40;91.80;;;;;;5073877;28;20055;-70
2022/07/09 12:15:04;;;;;;;4.57;2.13;;;25.50;90.40;;;;;;5073595;28;20066;-73
2022/07/09 12:17:31;;;;;;;4.35;2.20;;;25.50;92.00;;;;;;5073339;28;20624;-70
2022/07/09 12:19:58;;;;;;;4.53;2.20;;;25.20;90.10;;;;;;5074065;28;20436;-72
2022/07/09 12:22:25;;;;;;;4.00;1.92;;;25.30;86.50;;;;;;5073636;28;20424;-72
2022/07/09 12:24:54;;;;;;;4.38;1.90;;;25.40;86.30;;;;;;5073418;28;20016;-73
2022/07/09 12:27:20;;;;;;;2.15;1.90;;;25.50;87.60;;;;;;5073467;28;20040;-72
2022/07/09 12:29:46;;;;;;;4.35;1.58;;;;;;;;;;5073744;28;20070;-73
2022/07/09 12:32:13;;;;;;;3.88;2.17;;;;;;;;;;5073284;28;20063;-73
2022/07/09 12:34:39;;;;;;;4.43;2.00;;;25.70;87.90;;;;;;5073768;28;20024;-74
2022/07/09 12:37:05;;;;;;;8.40;2.83;;;25.80;86.80;;;;;;5073683;28;20093;-70
2022/07/09 12:39:31;;;;;;;3.38;1.85;;;25.80;87.10;;;;;;5073498;28;20021;-72
2022/07/09 12:41:58;;;;;;;4.13;2.08;;;25.80;89.40;;;;;;5073569;28;20662;-75
2022/07/09 12:44:24;;;;;;;7.22;1.90;;;25.90;85.00;;;;;;5073299;28;20028;-67